createdAt,value
2022-12-15T00:01:05.313Z,3.03
2022-12-15T00:04:26.796Z,2.89
2022-12-15T00:07:48.042Z,2.90
2022-12-15T00:11:09.795Z,2.95
2022-12-15T00:14:30.987Z,3.08
2022-12-15T00:17:52.162Z,2.97
2022-12-15T00:21:18.499Z,2.96
2022-12-15T00:24:40.321Z,2.86
2022-12-15T00:28:01.519Z,2.89
2022-12-15T00:31:23.413Z,2.95
2022-12-15T00:34:44.494Z,2.97
2022-12-15T00:38:05.674Z,2.92
2022-12-15T00:41:08.312Z,2.87
2022-12-15T00:44:15.759Z,2.96
2022-12-15T00:47:20.001Z,3.03
2022-12-15T00:50:41.358Z,3.01
2022-12-15T00:54:03.117Z,3.04
2022-12-15T00:57:24.506Z,3.10
2022-12-15T01:00:46.211Z,3.12
2022-12-15T01:04:07.842Z,3.06
2022-12-15T01:07:29.282Z,2.98
2022-12-15T01:10:50.865Z,3.03
2022-12-15T01:14:12.055Z,3.07
2022-12-15T01:17:34.427Z,3.03
2022-12-15T01:20:37.067Z,3.16
2022-12-15T01:23:41.183Z,2.96
2022-12-15T01:26:43.867Z,3.00
2022-12-15T01:29:46.799Z,2.97
2022-12-15T01:32:49.974Z,3.01
2022-12-15T01:36:01.241Z,3.18
2022-12-15T01:39:03.965Z,3.13
2022-12-15T01:42:12.590Z,3.25
2022-12-15T01:45:31.416Z,3.05
2022-12-15T01:48:46.510Z,2.98
2022-12-15T01:51:53.526Z,3.01
2022-12-15T01:54:58.332Z,2.87
2022-12-15T01:58:06.829Z,3.01
2022-12-15T02:01:10.594Z,3.04
2022-12-15T02:04:14.929Z,3.03
2022-12-15T02:07:18.799Z,3.03
2022-12-15T02:10:24.481Z,3.01
2022-12-15T02:13:49.679Z,3.01
2022-12-15T02:17:04.887Z,3.07
2022-12-15T02:20:33.748Z,2.95
2022-12-15T02:23:41.995Z,3.14
2022-12-15T02:27:12.989Z,3.06
2022-12-15T02:30:22.884Z,3.14
2022-12-15T02:33:30.154Z,3.12
2022-12-15T02:36:46.905Z,3.15
2022-12-15T02:39:49.845Z,3.11
2022-12-15T02:42:55.950Z,3.12
2022-12-15T02:46:12.602Z,3.12
2022-12-15T02:49:23.851Z,3.14
2022-12-15T02:52:32.983Z,3.21
2022-12-15T02:55:50.378Z,3.17
2022-12-15T02:59:18.735Z,3.18
2022-12-15T03:02:25.330Z,3.17
2022-12-15T03:05:28.379Z,3.14
2022-12-15T03:08:31.047Z,3.13
2022-12-15T03:11:34.663Z,3.15
2022-12-15T03:14:37.326Z,3.19
2022-12-15T03:17:40.285Z,3.22
2022-12-15T03:20:43.053Z,3.21
2022-12-15T03:23:46.071Z,3.19
2022-12-15T03:26:50.287Z,3.19
2022-12-15T03:29:53.212Z,3.23
2022-12-15T03:32:55.757Z,3.23
2022-12-15T03:35:58.665Z,3.26
2022-12-15T03:39:01.370Z,3.31
2022-12-15T03:42:04.523Z,3.19
2022-12-15T03:45:07.516Z,3.10
2022-12-15T03:48:10.495Z,3.08
2022-12-15T03:51:13.011Z,3.01
2022-12-15T03:54:15.889Z,3.16
2022-12-15T03:57:18.657Z,2.97
2022-12-15T04:00:22.612Z,3.08
2022-12-15T04:03:25.879Z,3.13
2022-12-15T04:06:29.733Z,2.96
2022-12-15T04:09:32.653Z,3.02
2022-12-15T04:12:35.183Z,3.10
2022-12-15T04:15:39.960Z,2.96
2022-12-15T04:18:42.822Z,2.95
2022-12-15T04:21:45.684Z,2.85
2022-12-15T04:25:07.037Z,3.01
2022-12-15T04:28:29.752Z,3.13
2022-12-15T04:31:52.347Z,3.18
2022-12-15T04:35:13.772Z,3.20
2022-12-15T04:38:35.075Z,3.27
2022-12-15T04:41:56.972Z,3.12
2022-12-15T04:45:21.656Z,3.10
2022-12-15T04:48:43.279Z,3.04
2022-12-15T04:52:04.531Z,3.01
2022-12-15T04:55:26.372Z,3.03
2022-12-15T04:58:47.576Z,3.11
2022-12-15T05:02:09.551Z,3.16
2022-12-15T05:05:31.037Z,3.15
2022-12-15T05:08:52.571Z,3.28
2022-12-15T05:12:13.738Z,3.24
2022-12-15T05:15:35.522Z,3.16
2022-12-15T05:18:57.127Z,3.22
2022-12-15T05:22:18.416Z,3.20
2022-12-15T05:25:39.488Z,3.23
2022-12-15T05:29:01.025Z,3.47
2022-12-15T05:32:03.712Z,3.31
2022-12-15T05:35:06.843Z,3.42
2022-12-15T05:38:09.449Z,3.44
2022-12-15T05:41:12.420Z,3.49
2022-12-15T05:44:15.151Z,3.43
2022-12-15T05:47:18.180Z,3.41
2022-12-15T05:50:22.192Z,3.34
2022-12-15T05:53:25.018Z,3.47
2022-12-15T05:56:28.730Z,3.45
2022-12-15T05:59:31.976Z,3.59
2022-12-15T06:02:34.914Z,3.52
2022-12-15T06:05:38.521Z,3.68
2022-12-15T06:08:43.155Z,3.74
2022-12-15T06:11:46.684Z,3.90
2022-12-15T06:14:49.891Z,3.77
2022-12-15T06:17:55.835Z,3.76
2022-12-15T06:21:05.458Z,3.72
2022-12-15T06:24:08.538Z,3.76
2022-12-15T06:27:11.202Z,3.88
2022-12-15T06:30:16.189Z,4.09
2022-12-15T06:33:19.834Z,4.08
2022-12-15T06:36:26.614Z,3.95
2022-12-15T06:39:30.005Z,3.95
2022-12-15T06:42:38.755Z,3.97
2022-12-15T06:45:51.162Z,4.00
2022-12-15T06:49:03.563Z,3.89
2022-12-15T06:52:09.645Z,3.90
2022-12-15T06:55:14.818Z,3.98
2022-12-15T06:58:25.297Z,4.50
2022-12-15T07:01:33.913Z,4.38
2022-12-15T07:04:47.585Z,4.31
2022-12-15T07:08:02.207Z,4.00
2022-12-15T07:11:15.013Z,3.99
2022-12-15T07:17:46.115Z,4.00
2022-12-15T07:21:27.933Z,3.95
2022-12-15T07:24:37.576Z,4.04
2022-12-15T07:27:49.900Z,3.99
2022-12-15T07:30:56.324Z,4.05
2022-12-15T07:34:12.471Z,4.34
2022-12-15T07:37:43.322Z,4.22
2022-12-15T07:44:38.296Z,4.32
2022-12-15T07:47:52.205Z,4.28
2022-12-15T07:51:21.578Z,4.31
2022-12-15T07:54:40.502Z,4.18
2022-12-15T07:57:47.127Z,4.63
2022-12-15T08:01:03.657Z,4.62
2022-12-15T08:04:10.657Z,4.53
2022-12-15T08:07:15.343Z,4.59
2022-12-15T08:10:30.958Z,4.56
2022-12-15T08:14:13.264Z,4.52
2022-12-15T08:17:23.139Z,4.51
2022-12-15T08:20:37.538Z,4.49
2022-12-15T08:23:54.959Z,4.65
2022-12-15T08:30:39.423Z,4.72
2022-12-15T08:33:44.070Z,4.94
2022-12-15T08:37:13.415Z,5.02
2022-12-15T08:40:17.732Z,4.90
2022-12-15T08:43:32.408Z,4.73
2022-12-15T08:46:43.331Z,4.72
2022-12-15T08:49:50.910Z,5.09
2022-12-15T08:53:28.975Z,5.10
2022-12-15T08:56:35.842Z,4.87
2022-12-15T08:59:47.434Z,4.88
2022-12-15T09:02:54.833Z,5.07
2022-12-15T09:06:07.339Z,5.25
2022-12-15T09:39:22.970Z,5.27
2022-12-15T09:42:45.033Z,5.28
2022-12-15T11:41:44.885Z,5.48
2022-12-15T11:45:21.908Z,5.36
2022-12-15T11:48:30.602Z,5.37
2022-12-15T11:51:51.859Z,5.70
2022-12-15T11:54:59.920Z,5.59
2022-12-15T11:58:20.385Z,5.72
2022-12-15T12:05:13.979Z,5.64
2022-12-15T12:08:54.842Z,5.40
2022-12-15T12:12:12.109Z,5.45
2022-12-15T12:15:33.555Z,5.66
2022-12-15T12:18:50.492Z,5.77
2022-12-15T12:22:21.653Z,5.21
2022-12-15T12:25:25.921Z,5.18
2022-12-15T12:28:36.283Z,5.29
2022-12-15T12:31:59.075Z,5.66
2022-12-15T12:35:32.766Z,5.69
2022-12-15T12:38:39.393Z,5.36
2022-12-15T12:41:51.626Z,5.62
2022-12-15T12:44:54.644Z,5.08
2022-12-15T12:48:02.927Z,4.92
2022-12-15T12:51:29.243Z,5.64
2022-12-15T12:54:37.868Z,5.77
2022-12-15T12:57:42.411Z,5.85
2022-12-15T13:01:06.420Z,5.84
2022-12-15T13:04:34.039Z,5.91
2022-12-15T13:07:40.849Z,5.89
2022-12-15T13:10:47.395Z,5.83
2022-12-15T13:13:53.164Z,6.02
2022-12-15T13:17:36.667Z,6.05
2022-12-15T13:20:41.625Z,6.05
2022-12-15T13:23:46.698Z,5.93
2022-12-15T13:26:53.386Z,6.21
2022-12-15T13:30:02.478Z,5.93
2022-12-15T13:33:19.105Z,5.73
2022-12-15T13:36:37.183Z,5.85
2022-12-15T13:39:55.462Z,5.87
2022-12-15T13:43:05.210Z,5.90
2022-12-15T13:46:18.049Z,5.68
2022-12-15T13:49:33.365Z,5.88
2022-12-15T13:53:17.335Z,5.86
2022-12-15T13:56:10.708Z,6.05
2022-12-15T13:59:33.497Z,5.81
2022-12-15T14:02:37.079Z,6.06
2022-12-15T14:05:43.065Z,5.30
2022-12-15T14:08:47.804Z,5.63
2022-12-15T14:11:54.556Z,5.64
2022-12-15T14:14:57.324Z,5.76
2022-12-15T14:18:02.502Z,5.82
2022-12-15T14:21:07.642Z,5.73
2022-12-15T14:24:43.656Z,5.38
2022-12-15T14:27:50.746Z,5.45
2022-12-15T14:30:57.074Z,5.65
2022-12-15T14:34:06.482Z,5.62
2022-12-15T14:37:17.440Z,5.64
2022-12-15T14:40:26.540Z,5.83
2022-12-15T14:43:39.738Z,5.69
2022-12-15T14:46:47.940Z,5.71
2022-12-15T14:49:51.751Z,5.53
2022-12-15T14:52:59.537Z,5.39
2022-12-15T14:56:20.422Z,5.34
2022-12-15T14:59:33.081Z,5.33
2022-12-15T15:02:36.198Z,5.23
2022-12-15T15:03:09.494Z,5.86
2022-12-15T15:05:41.352Z,5.33
2022-12-15T15:08:52.741Z,5.17
2022-12-15T15:12:12.748Z,5.70
2022-12-15T15:15:21.304Z,5.40
2022-12-15T15:18:27.873Z,5.40
2022-12-15T15:21:36.991Z,5.24
2022-12-15T15:24:39.605Z,5.15
2022-12-15T15:27:42.520Z,5.32
2022-12-15T15:30:48.826Z,5.45
2022-12-15T15:33:52.878Z,5.34
2022-12-15T15:36:55.607Z,5.36
2022-12-15T15:39:58.672Z,5.21
2022-12-15T15:43:01.275Z,5.09
2022-12-15T15:46:11.605Z,5.15
2022-12-15T15:49:17.915Z,4.86
2022-12-15T15:52:22.427Z,5.02
2022-12-15T15:55:32.285Z,4.89
2022-12-15T15:58:36.761Z,5.17
2022-12-15T16:01:39.816Z,4.87
2022-12-15T16:04:44.040Z,4.83
2022-12-15T16:07:47.329Z,4.89
2022-12-15T16:10:52.996Z,4.68
2022-12-15T16:13:56.768Z,4.61
2022-12-15T16:17:00.091Z,4.60
2022-12-15T16:20:04.750Z,4.57
2022-12-15T16:23:15.039Z,4.56
2022-12-15T16:26:29.876Z,4.81
2022-12-15T16:29:32.723Z,4.87
2022-12-15T16:32:35.386Z,5.06
2022-12-15T16:35:39.633Z,5.13
2022-12-15T16:38:43.532Z,5.32
2022-12-15T16:41:46.586Z,5.03
2022-12-15T16:44:49.232Z,4.98
2022-12-15T16:47:53.537Z,4.89
2022-12-15T16:50:59.267Z,4.88
2022-12-15T16:54:02.286Z,4.97
2022-12-15T16:57:06.487Z,4.90
2022-12-15T17:00:21.362Z,4.87
2022-12-15T17:03:28.022Z,4.90
2022-12-15T17:06:30.980Z,4.94
2022-12-15T17:09:36.832Z,4.73
2022-12-15T17:12:39.843Z,4.59
2022-12-15T17:15:42.484Z,4.61
2022-12-15T17:18:45.536Z,4.60
2022-12-15T17:21:51.829Z,4.48
2022-12-15T17:24:55.395Z,4.60
2022-12-15T17:27:58.200Z,4.67
2022-12-15T17:31:01.173Z,4.83
2022-12-15T17:34:26.270Z,4.73
2022-12-15T17:37:34.913Z,4.47
2022-12-15T17:40:38.236Z,4.44
2022-12-15T17:43:41.795Z,4.36
2022-12-15T17:46:44.695Z,4.15
2022-12-15T17:49:48.236Z,4.10
2022-12-15T17:52:50.936Z,4.14
2022-12-15T17:55:54.491Z,4.08
2022-12-15T17:58:57.367Z,4.23
2022-12-15T18:02:00.434Z,4.48
2022-12-15T18:05:03.405Z,4.34
2022-12-15T18:08:17.066Z,4.29
2022-12-15T18:11:20.168Z,4.41
2022-12-15T18:14:23.049Z,4.22
2022-12-15T18:17:26.051Z,4.08
2022-12-15T18:20:29.398Z,4.31
2022-12-15T18:23:35.144Z,4.03
2022-12-15T18:26:38.186Z,4.00
2022-12-15T18:29:41.059Z,3.94
2022-12-15T18:32:44.947Z,3.86
2022-12-15T18:35:51.222Z,3.93
2022-12-15T18:38:54.124Z,3.89
2022-12-15T18:41:57.943Z,3.76
2022-12-15T18:45:02.370Z,3.62
2022-12-15T18:48:32.650Z,3.65
2022-12-15T18:51:35.738Z,3.39
2022-12-15T18:54:38.799Z,3.40
2022-12-15T18:57:41.762Z,3.61
2022-12-15T19:00:45.149Z,3.65
2022-12-15T19:03:48.068Z,3.43
2022-12-15T19:06:50.957Z,3.60
2022-12-15T19:09:53.884Z,3.64
2022-12-15T19:12:58.818Z,3.51
2022-12-15T19:16:03.919Z,3.56
2022-12-15T19:19:30.394Z,3.52
2022-12-15T19:22:33.204Z,3.52
2022-12-15T19:25:40.493Z,3.74
2022-12-15T19:28:43.273Z,3.73
2022-12-15T19:31:47.014Z,3.71
2022-12-15T19:34:50.373Z,3.67
2022-12-15T19:37:56.934Z,3.48
2022-12-15T19:41:01.086Z,3.61
2022-12-15T19:44:14.086Z,3.42
2022-12-15T19:47:16.889Z,3.26
2022-12-15T19:50:29.025Z,3.29
2022-12-15T19:53:32.518Z,3.46
2022-12-15T19:56:36.630Z,3.48
2022-12-15T19:59:39.874Z,3.39
2022-12-15T20:02:44.629Z,3.47
2022-12-15T20:05:51.730Z,3.37
2022-12-15T20:08:56.253Z,3.40
2022-12-15T20:11:59.588Z,3.41
2022-12-15T20:15:15.654Z,3.55
2022-12-15T20:18:19.260Z,3.62
2022-12-15T20:21:24.241Z,3.58
2022-12-15T20:24:28.165Z,3.73
2022-12-15T20:27:31.034Z,3.87
2022-12-15T20:30:35.693Z,3.94
2022-12-15T20:33:38.463Z,4.01
2022-12-15T20:36:42.588Z,4.11
2022-12-15T20:39:45.437Z,4.27
2022-12-15T20:42:49.325Z,4.33
2022-12-15T20:46:02.205Z,4.39
2022-12-15T20:49:13.223Z,4.58
2022-12-15T20:52:22.927Z,4.70
2022-12-15T20:55:26.399Z,4.61
2022-12-15T20:58:33.128Z,4.63
2022-12-15T21:01:38.218Z,4.76
2022-12-15T21:04:41.205Z,4.66
2022-12-15T21:07:44.854Z,4.84
2022-12-15T21:10:47.619Z,4.75
2022-12-15T21:13:52.392Z,4.68
2022-12-15T21:16:55.019Z,4.94
2022-12-15T21:19:58.045Z,4.79
2022-12-15T21:23:00.658Z,4.67
2022-12-15T21:26:04.063Z,4.87
2022-12-15T21:29:12.863Z,4.90
2022-12-15T21:32:15.880Z,4.98
2022-12-15T21:35:19.731Z,5.14
2022-12-15T21:38:34.172Z,5.19
2022-12-15T21:41:42.145Z,5.16
2022-12-15T21:44:45.501Z,5.19
2022-12-15T21:48:07.602Z,5.25
2022-12-15T21:51:17.663Z,5.21
2022-12-15T21:54:28.839Z,5.22
2022-12-15T21:57:33.670Z,5.03
2022-12-15T22:00:39.699Z,5.08
2022-12-15T22:03:50.845Z,5.22
2022-12-15T22:06:54.217Z,5.05
2022-12-15T22:09:57.092Z,5.15
2022-12-15T22:13:00.060Z,5.23
2022-12-15T22:16:03.149Z,5.26
2022-12-15T22:19:12.686Z,5.05
2022-12-15T22:22:16.692Z,5.14
2022-12-15T22:25:24.696Z,5.20
2022-12-15T22:28:28.705Z,5.22
2022-12-15T22:31:31.335Z,5.22
2022-12-15T22:34:34.264Z,5.28
2022-12-15T22:37:36.846Z,5.34
2022-12-15T22:40:40.131Z,5.37
2022-12-15T22:43:44.744Z,5.38
2022-12-15T22:46:49.249Z,5.37
2022-12-15T22:49:53.517Z,5.35
2022-12-15T22:52:57.559Z,5.36
2022-12-15T22:56:03.090Z,5.30
2022-12-15T22:59:10.658Z,5.37
2022-12-15T23:02:13.351Z,5.37
2022-12-15T23:05:18.875Z,5.49
2022-12-15T23:08:21.438Z,5.45
2022-12-15T23:11:37.416Z,5.49
2022-12-15T23:14:58.663Z,5.42
2022-12-15T23:18:01.587Z,5.38
2022-12-15T23:21:04.653Z,5.53
2022-12-15T23:24:07.963Z,5.45
2022-12-15T23:27:11.648Z,5.48
2022-12-15T23:30:14.762Z,5.53
2022-12-15T23:33:18.285Z,5.34
2022-12-15T23:36:21.210Z,5.34
2022-12-15T23:39:24.290Z,5.54
2022-12-15T23:42:27.518Z,5.59
2022-12-15T23:45:30.079Z,5.57
2022-12-15T23:48:35.961Z,5.39
2022-12-15T23:51:38.802Z,5.46
2022-12-15T23:54:41.693Z,5.31
2022-12-15T23:57:44.269Z,5.48
